首页
METAR-TAF:

METAR-TAF

机场 :

比塞大, 突尼斯

纬度: 37-15N, 经度: 009-48E, 海拔: 5米

当前天气观测

该预报发布于1小时和9分钟前的07:00 UTC
风速5节,风向西转西北
温度 12°C
湿度 94%
气压 1009 hPa
能見度: 6000
多云层高于1600英尺
散云层高于3000英尺
小雨

METAR: DTTB 030700Z 30005KT 6000 -RA BKN016 SCT030 12/11 Q1009

时间: 09:09 (08:09 UTC)

预报

该预报发布于2小时和9分钟前的06:00 UTC
预报有效从03日的 07点(UTC)到 03日的 16点(UTC)
风速8节,风向西
能見度: 8000
散云层高于1600英尺
多云层高于3000英尺
短暂存在
从 03日的 07点(UTC)到 03日的 16点(UTC)
能見度: 4000
少量云层高于2600英尺, 积雨云.
阵雨

TAF: DTTB 030600Z 0307/0316 27008KT 8000 SCT016 BKN030 TEMPO 0307/0316 4000 SHRA FEW026CB

超过4000个机场的气象观测和天气预报(METAR&TAF报告)。

可查询的气象台以黄色和红色小点在地图上表示。

将鼠标移到小点上方,可查看气象台名称。

然后点击查看天气观测和预报。

如需切换地图:点击带黑十字的绿色按钮放大地图;点击带横线的绿色按钮缩小地图;或者点击绿色箭头查看邻近地区的地图。


METAR-TAF: